createdAt,value
2022-07-31T00:00:45.979Z,20.84777832
2022-07-31T00:01:46.753Z,20.82763672
2022-07-31T00:02:47.574Z,20.82763672
2022-07-31T00:03:48.456Z,20.86791992
2022-07-31T00:04:49.040Z,20.86791992
2022-07-31T00:05:49.798Z,20.87799072
2022-07-31T00:06:50.569Z,20.89813232
2022-07-31T00:07:51.351Z,20.87799072
2022-07-31T00:08:52.144Z,20.86791992
2022-07-31T00:09:54.720Z,20.81756592
2022-07-31T00:11:25.416Z,20.81756592
2022-07-31T00:12:26.228Z,20.81756592
2022-07-31T00:13:56.461Z,20.81756592
2022-07-31T00:14:27.715Z,20.81756592
2022-07-31T00:15:28.514Z,20.80749512
2022-07-31T00:16:29.316Z,20.78735352
2022-07-31T00:17:30.087Z,20.78735352
2022-07-31T00:18:30.874Z,20.77728271
2022-07-31T00:19:31.603Z,20.75714111
2022-07-31T00:20:33.001Z,20.72692871
2022-07-31T00:21:33.802Z,20.71685791
2022-07-31T00:22:35.107Z,20.72692871
2022-07-31T00:23:35.906Z,20.72692871
2022-07-31T00:24:36.607Z,20.72692871
2022-07-31T00:25:37.344Z,20.74707031
2022-07-31T00:26:38.095Z,20.72692871
2022-07-31T00:27:39.653Z,20.77728271
2022-07-31T00:28:40.408Z,20.78735352
2022-07-31T00:29:41.123Z,20.80749512
2022-07-31T00:30:42.612Z,20.80749512
2022-07-31T00:31:43.358Z,20.78735352
2022-07-31T00:32:44.158Z,20.77728271
2022-07-31T00:33:44.930Z,20.77728271
2022-07-31T00:34:45.670Z,20.77728271
2022-07-31T00:35:46.479Z,20.80749512
2022-07-31T00:36:47.251Z,20.80749512
2022-07-31T00:37:47.989Z,20.78735352
2022-07-31T00:38:48.767Z,20.75714111
2022-07-31T00:39:49.497Z,20.72692871
2022-07-31T00:40:51.108Z,20.68664551
2022-07-31T00:41:52.043Z,20.65643311
2022-07-31T00:42:53.110Z,20.5758667
2022-07-31T00:44:24.306Z,20.5657959
2022-07-31T00:45:29.102Z,20.5657959
2022-07-31T00:46:25.845Z,20.5557251
2022-07-31T00:47:26.635Z,20.5557251
2022-07-31T00:48:27.592Z,20.5355835
2022-07-31T00:49:37.692Z,20.5355835
2022-07-31T00:50:30.616Z,20.5657959
2022-07-31T00:51:31.391Z,20.5355835
2022-07-31T00:52:32.138Z,20.5355835
2022-07-31T00:53:32.799Z,20.5255127
2022-07-31T00:54:33.553Z,20.5255127
2022-07-31T00:55:51.387Z,20.50537109
2022-07-31T00:56:35.637Z,20.47515869
2022-07-31T00:57:36.352Z,20.45501709
2022-07-31T00:58:37.043Z,20.45501709
2022-07-31T00:59:37.808Z,20.47515869
2022-07-31T01:00:39.175Z,20.49530029
2022-07-31T01:01:39.899Z,20.49530029
2022-07-31T01:02:46.241Z,20.41473389
2022-07-31T01:03:41.585Z,20.41473389
2022-07-31T01:04:44.579Z,20.38452148
2022-07-31T01:05:43.011Z,20.40466309
2022-07-31T01:06:43.845Z,20.38452148
2022-07-31T01:07:45.559Z,20.37445068
2022-07-31T01:08:46.929Z,20.34423828
2022-07-31T01:09:47.669Z,20.34423828
2022-07-31T01:10:49.103Z,20.31402588
2022-07-31T01:11:50.078Z,20.34423828
2022-07-31T01:12:54.099Z,20.35430908
2022-07-31T01:13:51.531Z,20.37445068
2022-07-31T01:14:52.755Z,20.41473389
2022-07-31T01:16:23.781Z,20.45501709
2022-07-31T01:17:24.586Z,20.47515869
2022-07-31T01:18:25.467Z,20.44494629
2022-07-31T01:19:39.825Z,20.44494629
2022-07-31T01:20:27.630Z,20.42480469
2022-07-31T01:21:28.346Z,20.38452148
2022-07-31T01:22:34.652Z,20.34423828
2022-07-31T01:23:30.841Z,20.30395508
2022-07-31T01:24:31.700Z,20.30395508
2022-07-31T01:25:33.054Z,20.23345947
2022-07-31T01:26:33.699Z,20.22338867
2022-07-31T01:27:49.323Z,20.22338867
2022-07-31T01:28:35.392Z,20.20324707
2022-07-31T01:29:36.223Z,20.17303467
2022-07-31T01:30:37.009Z,20.15289307
2022-07-31T01:31:38.473Z,20.17303467
2022-07-31T01:32:39.247Z,20.17303467
2022-07-31T01:33:40.064Z,20.19317627
2022-07-31T01:34:41.774Z,20.23345947
2022-07-31T01:35:42.509Z,20.23345947
2022-07-31T01:36:43.147Z,20.23345947
2022-07-31T01:37:43.974Z,20.25360107
2022-07-31T01:38:45.801Z,20.30395508
2022-07-31T01:39:45.623Z,20.27374268
2022-07-31T01:40:47.154Z,20.26367188
2022-07-31T01:41:47.871Z,20.22338867
2022-07-31T01:42:49.154Z,20.22338867
2022-07-31T01:43:50.023Z,20.19317627
2022-07-31T01:44:50.884Z,20.16296387
2022-07-31T01:45:51.772Z,20.08239746
2022-07-31T01:47:22.919Z,20.05218506
2022-07-31T01:48:23.719Z,20.07232666
2022-07-31T01:49:24.601Z,20.10253906
2022-07-31T01:50:42.230Z,20.08239746
2022-07-31T01:51:26.955Z,20.08239746
2022-07-31T01:52:28.125Z,20.08239746
2022-07-31T01:53:28.892Z,20.07232666
2022-07-31T01:54:29.741Z,20.04211426
2022-07-31T01:55:30.579Z,19.98168945
2022-07-31T01:56:31.356Z,19.90112305
2022-07-31T01:57:32.932Z,19.85076904
2022-07-31T01:58:33.733Z,19.82055664
2022-07-31T01:59:34.563Z,19.82055664
2022-07-31T02:00:35.408Z,19.83062744
2022-07-31T02:01:37.067Z,19.85076904
2022-07-31T02:02:37.710Z,19.87091064
2022-07-31T02:03:43.023Z,19.89105225
2022-07-31T02:04:39.344Z,19.86083984
2022-07-31T02:05:40.196Z,19.87091064
2022-07-31T02:06:40.976Z,19.85076904
2022-07-31T02:07:41.917Z,19.82055664
2022-07-31T02:08:42.693Z,19.80041504
2022-07-31T02:09:52.319Z,19.80041504
2022-07-31T02:10:44.310Z,19.78027344
2022-07-31T02:11:54.431Z,19.78027344
2022-07-31T02:12:46.750Z,19.78027344
2022-07-31T02:13:47.503Z,19.76013184
2022-07-31T02:14:48.348Z,19.78027344
2022-07-31T02:15:49.159Z,19.78027344
2022-07-31T02:16:50.004Z,19.79034424
2022-07-31T02:17:50.699Z,19.82055664
2022-07-31T02:18:51.901Z,19.83062744
2022-07-31T02:20:23.268Z,19.86083984
2022-07-31T02:21:25.073Z,19.86083984
2022-07-31T02:22:27.327Z,19.87091064
2022-07-31T02:23:27.471Z,19.90112305
2022-07-31T02:24:28.247Z,19.89105225
2022-07-31T02:25:29.080Z,19.87091064
2022-07-31T02:26:29.940Z,19.89105225
2022-07-31T02:27:54.398Z,19.89105225
2022-07-31T02:28:32.291Z,19.90112305
2022-07-31T02:29:33.094Z,19.89105225
2022-07-31T02:30:39.288Z,19.89105225
2022-07-31T02:31:35.664Z,19.89105225
2022-07-31T02:32:36.478Z,19.87091064
2022-07-31T02:33:37.207Z,19.89105225
2022-07-31T02:34:37.955Z,19.86083984
2022-07-31T02:35:38.753Z,19.83062744
2022-07-31T02:36:39.644Z,19.80041504
2022-07-31T02:37:40.430Z,19.80041504
2022-07-31T02:38:41.126Z,19.82055664
2022-07-31T02:39:41.955Z,19.82055664
2022-07-31T02:40:42.797Z,19.83062744
2022-07-31T02:41:44.586Z,19.79034424
2022-07-31T02:42:45.425Z,19.75006104
2022-07-31T02:43:46.098Z,19.78027344
2022-07-31T02:44:46.921Z,19.79034424
2022-07-31T02:45:47.751Z,19.76013184
2022-07-31T02:46:48.592Z,19.70977783
2022-07-31T02:47:50.213Z,19.70977783
2022-07-31T02:48:50.903Z,19.67956543
2022-07-31T02:50:22.220Z,19.64935303
2022-07-31T02:51:24.170Z,19.64935303
2022-07-31T02:52:24.991Z,19.61914063
2022-07-31T02:53:25.750Z,19.59899902
2022-07-31T02:54:26.480Z,19.57885742
2022-07-31T02:55:27.256Z,19.56878662
2022-07-31T02:56:29.103Z,19.52850342
2022-07-31T02:57:30.033Z,19.49829102
2022-07-31T02:58:30.703Z,19.49829102
2022-07-31T02:59:31.371Z,19.51843262
2022-07-31T03:00:32.187Z,19.49829102
2022-07-31T03:01:33.678Z,19.48822021
2022-07-31T03:02:37.883Z,19.48822021
2022-07-31T03:03:35.377Z,19.51843262
2022-07-31T03:04:36.044Z,19.54864502
2022-07-31T03:05:36.837Z,19.57885742
2022-07-31T03:06:37.660Z,19.59899902
2022-07-31T03:07:38.510Z,19.60906982
2022-07-31T03:08:39.282Z,19.61914063
2022-07-31T03:09:40.026Z,19.63928223
2022-07-31T03:10:40.699Z,19.64935303
2022-07-31T03:11:42.730Z,19.66949463
2022-07-31T03:12:43.568Z,19.60906982
2022-07-31T03:13:44.365Z,19.59899902
2022-07-31T03:14:45.055Z,19.57885742
2022-07-31T03:15:51.062Z,19.54864502
2022-07-31T03:16:46.694Z,19.54864502
2022-07-31T03:17:47.500Z,19.54864502
2022-07-31T03:18:48.368Z,19.52850342
2022-07-31T03:19:49.052Z,19.48822021
2022-07-31T03:20:50.694Z,19.39758301
2022-07-31T03:22:22.929Z,19.37744141
2022-07-31T03:23:23.739Z,19.38751221
2022-07-31T03:24:24.492Z,19.347229
2022-07-31T03:25:25.197Z,19.347229
2022-07-31T03:26:26.542Z,19.347229
2022-07-31T03:27:27.353Z,19.3371582
2022-07-31T03:28:28.249Z,19.37744141
2022-07-31T03:29:41.129Z,19.39758301
2022-07-31T03:30:29.705Z,19.38751221
2022-07-31T03:31:31.212Z,19.42779541
2022-07-31T03:32:32.046Z,19.41772461
2022-07-31T03:33:32.880Z,19.41772461
2022-07-31T03:34:33.743Z,19.41772461
2022-07-31T03:35:34.474Z,19.44793701
2022-07-31T03:36:35.256Z,19.42779541
2022-07-31T03:37:36.607Z,19.39758301
2022-07-31T03:38:41.844Z,19.41772461
2022-07-31T03:39:38.276Z,19.38751221
2022-07-31T03:40:38.945Z,19.38751221
2022-07-31T03:41:40.631Z,19.38751221
2022-07-31T03:42:41.701Z,19.3371582
2022-07-31T03:43:44.195Z,19.347229
2022-07-31T03:44:43.337Z,19.347229
2022-07-31T03:45:44.032Z,19.347229
2022-07-31T03:46:44.743Z,19.37744141
2022-07-31T03:47:45.570Z,19.38751221
2022-07-31T03:48:46.457Z,19.347229
2022-07-31T03:49:47.216Z,19.37744141
2022-07-31T03:50:47.945Z,19.39758301
2022-07-31T03:51:49.735Z,19.41772461
2022-07-31T03:53:21.427Z,19.42779541
2022-07-31T03:54:23.161Z,19.41772461
2022-07-31T03:55:23.931Z,19.39758301
2022-07-31T03:56:25.513Z,19.37744141
2022-07-31T03:57:27.621Z,19.3069458
2022-07-31T03:58:27.132Z,19.2767334
2022-07-31T03:59:27.933Z,19.2364502
2022-07-31T04:00:28.773Z,19.2364502
2022-07-31T04:01:56.848Z,19.20623779
2022-07-31T04:02:31.900Z,19.2364502
2022-07-31T04:03:31.916Z,19.2666626
2022-07-31T04:04:32.712Z,19.246521
2022-07-31T04:05:33.455Z,19.2666626
2022-07-31T04:06:34.176Z,19.2364502
2022-07-31T04:07:34.996Z,19.2364502
2022-07-31T04:08:35.767Z,19.2364502
2022-07-31T04:09:36.588Z,19.246521
2022-07-31T04:10:37.367Z,19.2767334
2022-07-31T04:11:38.087Z,19.3069458
2022-07-31T04:12:39.571Z,19.3069458
2022-07-31T04:13:40.345Z,19.3069458
2022-07-31T04:14:41.187Z,19.3371582
2022-07-31T04:15:42.015Z,19.3371582
2022-07-31T04:16:42.708Z,19.3170166
2022-07-31T04:17:43.500Z,19.3170166
2022-07-31T04:18:51.019Z,19.3170166
2022-07-31T04:19:45.136Z,19.296875
2022-07-31T04:20:46.530Z,19.3170166
2022-07-31T04:21:47.289Z,19.296875
2022-07-31T04:22:49.463Z,19.296875
2022-07-31T04:23:50.270Z,19.3069458
2022-07-31T04:25:21.054Z,19.3069458
2022-07-31T04:26:26.126Z,19.3170166
2022-07-31T04:27:23.598Z,19.3170166
2022-07-31T04:28:24.461Z,19.3069458
2022-07-31T04:29:25.281Z,19.246521
2022-07-31T04:30:26.186Z,19.246521
2022-07-31T04:31:26.953Z,19.246521
2022-07-31T04:32:28.511Z,19.20623779
2022-07-31T04:33:29.374Z,19.22637939
2022-07-31T04:34:30.176Z,19.20623779
2022-07-31T04:35:30.980Z,19.22637939
2022-07-31T04:36:31.659Z,19.22637939
2022-07-31T04:37:32.418Z,19.2364502
2022-07-31T04:38:33.208Z,19.2767334
2022-07-31T04:39:33.994Z,19.296875
2022-07-31T04:40:34.808Z,19.3069458
2022-07-31T04:41:35.530Z,19.296875
2022-07-31T04:42:36.990Z,19.3069458
2022-07-31T04:43:37.859Z,19.296875
2022-07-31T04:44:38.727Z,19.296875
2022-07-31T04:45:39.560Z,19.2767334
2022-07-31T04:46:40.334Z,19.2666626
2022-07-31T04:47:41.033Z,19.2666626
2022-07-31T04:48:42.105Z,19.2666626
2022-07-31T04:49:42.892Z,19.246521
2022-07-31T04:50:43.736Z,19.246521
2022-07-31T04:51:45.144Z,19.22637939
2022-07-31T04:52:46.668Z,19.22637939
2022-07-31T04:53:47.455Z,19.22637939
2022-07-31T04:54:48.300Z,19.19616699
2022-07-31T04:55:49.127Z,19.16595459
2022-07-31T04:57:22.162Z,19.14581299
2022-07-31T04:58:22.240Z,19.15588379
2022-07-31T04:59:22.904Z,19.14581299
2022-07-31T05:00:23.760Z,19.15588379
2022-07-31T05:01:24.624Z,19.16595459
2022-07-31T05:02:26.281Z,19.14581299
2022-07-31T05:03:26.859Z,19.14581299
2022-07-31T05:04:27.699Z,19.11560059
2022-07-31T05:05:28.509Z,19.12567139
2022-07-31T05:06:29.359Z,19.11560059
2022-07-31T05:07:30.121Z,19.11560059
2022-07-31T05:08:30.838Z,19.11560059
2022-07-31T05:09:31.738Z,19.14581299
2022-07-31T05:10:32.555Z,19.15588379
2022-07-31T05:11:33.430Z,19.20623779
2022-07-31T05:12:34.644Z,19.2364502
2022-07-31T05:13:35.696Z,19.2767334
2022-07-31T05:14:36.252Z,19.3170166
2022-07-31T05:15:37.052Z,19.3371582
2022-07-31T05:16:37.904Z,19.38751221
2022-07-31T05:17:38.657Z,19.42779541
2022-07-31T05:18:39.384Z,19.45800781
2022-07-31T05:19:40.263Z,19.48822021
2022-07-31T05:20:41.050Z,19.51843262
2022-07-31T05:21:53.133Z,19.54864502
2022-07-31T05:22:44.157Z,19.57885742
2022-07-31T05:23:44.845Z,19.59899902
2022-07-31T05:24:45.710Z,19.61914063
2022-07-31T05:25:46.511Z,19.66949463
2022-07-31T05:26:47.345Z,19.69970703
2022-07-31T05:27:49.995Z,19.75006104
2022-07-31T05:29:20.043Z,19.78027344
2022-07-31T05:30:30.409Z,19.78027344
2022-07-31T05:31:21.729Z,19.80041504
2022-07-31T05:32:23.536Z,19.82055664
2022-07-31T05:33:23.939Z,19.83062744
2022-07-31T05:34:24.682Z,19.87091064
2022-07-31T05:35:25.546Z,19.89105225
2022-07-31T05:36:26.305Z,19.89105225
2022-07-31T05:37:27.106Z,19.90112305
2022-07-31T05:38:27.845Z,19.92126465
2022-07-31T05:39:28.669Z,19.97161865
2022-07-31T05:40:29.482Z,19.98168945
2022-07-31T05:41:30.261Z,20.01190186
2022-07-31T05:42:31.869Z,20.00183105
2022-07-31T05:43:33.568Z,20.00183105
2022-07-31T05:44:34.271Z,20.01190186
2022-07-31T05:45:35.187Z,20.04211426
2022-07-31T05:46:35.982Z,20.05218506
2022-07-31T05:47:40.134Z,20.08239746
2022-07-31T05:48:37.551Z,20.08239746
2022-07-31T05:49:38.257Z,20.10253906
2022-07-31T05:50:39.096Z,20.12268066
2022-07-31T05:51:40.700Z,20.10253906
2022-07-31T05:52:42.719Z,20.12268066
2022-07-31T05:53:45.787Z,20.12268066
2022-07-31T05:54:44.192Z,20.13275146
2022-07-31T05:55:45.037Z,20.13275146
2022-07-31T05:56:45.887Z,20.15289307
2022-07-31T05:57:47.697Z,20.17303467
2022-07-31T05:58:48.614Z,20.22338867
2022-07-31T06:00:19.708Z,20.23345947
2022-07-31T06:01:20.577Z,20.26367188
2022-07-31T06:02:21.355Z,20.31402588
2022-07-31T06:03:23.084Z,20.31402588
2022-07-31T06:04:23.805Z,20.34423828
2022-07-31T06:05:24.689Z,20.37445068
2022-07-31T06:06:25.649Z,20.40466309
2022-07-31T06:07:26.419Z,20.41473389
2022-07-31T06:08:27.238Z,20.42480469
2022-07-31T06:09:27.939Z,20.45501709
2022-07-31T06:10:28.659Z,20.50537109
2022-07-31T06:11:29.520Z,20.5355835
2022-07-31T06:12:31.234Z,20.5557251
2022-07-31T06:13:31.987Z,20.5758667
2022-07-31T06:14:33.562Z,20.5960083
2022-07-31T06:15:36.344Z,20.6262207
2022-07-31T06:16:35.286Z,20.6362915
2022-07-31T06:17:43.629Z,20.6362915
2022-07-31T06:18:36.804Z,20.6362915
2022-07-31T06:19:37.522Z,20.65643311
2022-07-31T06:20:39.132Z,20.68664551
2022-07-31T06:21:39.163Z,20.70678711
2022-07-31T06:22:40.648Z,20.72692871
2022-07-31T06:23:42.085Z,20.74707031
2022-07-31T06:24:43.449Z,20.77728271
2022-07-31T06:25:43.591Z,20.78735352
2022-07-31T06:26:45.250Z,20.78735352
2022-07-31T06:27:52.023Z,20.78735352
2022-07-31T06:28:48.711Z,20.80749512
2022-07-31T06:29:47.558Z,20.82763672
2022-07-31T06:30:48.764Z,20.86791992
2022-07-31T06:32:20.754Z,20.87799072
2022-07-31T06:33:37.569Z,20.87799072
2022-07-31T06:34:22.939Z,20.87799072
2022-07-31T06:35:23.626Z,20.89813232
2022-07-31T06:36:24.461Z,20.90820313
2022-07-31T06:37:25.428Z,20.90820313
2022-07-31T06:38:26.256Z,20.95855713
2022-07-31T06:39:28.101Z,20.96862793
2022-07-31T06:40:27.629Z,20.96862793
2022-07-31T06:41:28.435Z,20.96862793
2022-07-31T06:42:29.351Z,20.96862793
2022-07-31T06:43:31.154Z,20.97869873
2022-07-31T06:44:31.893Z,20.99884033
2022-07-31T06:45:51.123Z,21.00891113
2022-07-31T06:46:33.348Z,21.00891113
2022-07-31T06:47:34.187Z,21.02905273
2022-07-31T06:48:34.993Z,21.04919434
2022-07-31T06:49:35.721Z,21.07940674
2022-07-31T06:50:37.162Z,21.08947754
2022-07-31T06:51:37.929Z,21.07940674
2022-07-31T06:52:38.836Z,21.08947754
2022-07-31T06:53:40.623Z,21.10961914
2022-07-31T06:54:41.352Z,21.10961914
2022-07-31T06:55:44.696Z,21.11968994
2022-07-31T06:56:42.873Z,21.14990234
2022-07-31T06:57:44.627Z,21.18011475
2022-07-31T06:58:45.403Z,21.18011475
2022-07-31T06:59:46.182Z,21.18011475
2022-07-31T07:00:46.890Z,21.21032715
2022-07-31T07:01:47.761Z,21.24053955
2022-07-31T07:03:19.753Z,21.26068115
2022-07-31T07:04:20.539Z,21.27075195
2022-07-31T07:05:21.241Z,21.27075195
2022-07-31T07:06:21.985Z,21.30096436
2022-07-31T07:07:22.797Z,21.30096436
2022-07-31T07:08:23.676Z,21.31103516
2022-07-31T07:09:24.403Z,21.34124756
2022-07-31T07:10:25.198Z,21.34124756
2022-07-31T07:11:25.904Z,21.37145996
2022-07-31T07:12:26.913Z,21.38153076
2022-07-31T07:13:45.948Z,21.40167236
2022-07-31T07:14:28.956Z,21.42181396
2022-07-31T07:15:29.657Z,21.43188477
2022-07-31T07:16:30.330Z,21.46209717
2022-07-31T07:17:31.136Z,21.46209717
2022-07-31T07:18:31.979Z,21.46209717
2022-07-31T07:19:32.791Z,21.48223877
2022-07-31T07:20:33.461Z,21.49230957
2022-07-31T07:21:34.217Z,21.51245117
2022-07-31T07:22:35.729Z,21.52252197
2022-07-31T07:23:37.263Z,21.52252197
2022-07-31T07:24:38.067Z,21.49230957
2022-07-31T07:25:38.783Z,21.51245117
2022-07-31T07:26:39.498Z,21.51245117
2022-07-31T07:27:40.346Z,21.49230957
2022-07-31T07:28:42.151Z,21.52252197
2022-07-31T07:29:42.893Z,21.51245117
2022-07-31T07:30:43.605Z,21.53259277
2022-07-31T07:31:44.312Z,21.53259277
2022-07-31T07:32:45.142Z,21.56280518
2022-07-31T07:33:46.662Z,21.58294678
2022-07-31T07:34:47.899Z,21.63330078
2022-07-31T07:36:24.104Z,21.66351318
2022-07-31T07:37:19.779Z,21.68365479
2022-07-31T07:38:20.619Z,21.70379639
2022-07-31T07:39:21.493Z,21.74407959
2022-07-31T07:40:22.289Z,21.75415039
2022-07-31T07:41:22.958Z,21.77429199
2022-07-31T07:42:23.769Z,21.8145752
2022-07-31T07:43:25.240Z,21.824646
2022-07-31T07:44:26.239Z,21.8347168
2022-07-31T07:45:26.924Z,21.8347168
2022-07-31T07:46:27.645Z,21.8649292
2022-07-31T07:47:28.398Z,21.8951416
2022-07-31T07:48:29.238Z,21.9052124
2022-07-31T07:49:30.182Z,21.9354248
2022-07-31T07:50:30.931Z,21.95556641
2022-07-31T07:51:32.701Z,21.98577881
2022-07-31T07:52:33.479Z,22.00592041
2022-07-31T07:53:35.236Z,22.04620361
2022-07-31T07:54:36.136Z,22.05627441
2022-07-31T07:55:37.672Z,22.08648682
2022-07-31T07:56:37.605Z,22.10662842
2022-07-31T07:57:38.380Z,22.11669922
2022-07-31T07:58:40.159Z,22.13684082
2022-07-31T07:59:41.116Z,22.16705322
2022-07-31T08:00:42.114Z,22.18719482
2022-07-31T08:01:42.836Z,22.18719482
2022-07-31T08:02:43.502Z,22.19726563
2022-07-31T08:03:51.439Z,22.20733643
2022-07-31T08:04:47.688Z,22.23754883
2022-07-31T08:05:46.749Z,22.26776123
2022-07-31T08:07:18.239Z,22.28790283
2022-07-31T08:08:19.055Z,22.29797363
2022-07-31T08:09:19.889Z,22.29797363
2022-07-31T08:10:20.863Z,22.30804443
2022-07-31T08:11:21.490Z,22.32818604
2022-07-31T08:12:22.696Z,22.34832764
2022-07-31T08:13:24.264Z,22.37854004
2022-07-31T08:14:25.226Z,22.37854004
2022-07-31T08:15:26.026Z,22.40875244
2022-07-31T08:16:26.693Z,22.41882324
2022-07-31T08:17:27.387Z,22.44903564
2022-07-31T08:18:28.617Z,22.45910645
2022-07-31T08:19:29.019Z,22.45910645
2022-07-31T08:20:29.821Z,22.48931885
2022-07-31T08:21:30.563Z,22.50946045
2022-07-31T08:22:32.207Z,22.51953125
2022-07-31T08:23:33.757Z,22.53967285
2022-07-31T08:24:34.586Z,22.55981445
2022-07-31T08:25:35.453Z,22.56988525
2022-07-31T08:26:36.134Z,22.59002686
2022-07-31T08:27:40.510Z,22.59002686
2022-07-31T08:28:38.643Z,22.60009766
2022-07-31T08:29:39.483Z,22.60009766
2022-07-31T08:30:40.452Z,22.64038086
2022-07-31T08:31:41.072Z,22.64038086
2022-07-31T08:32:41.953Z,22.66052246
2022-07-31T08:33:43.755Z,22.67059326
2022-07-31T08:34:44.564Z,22.69073486
2022-07-31T08:35:50.254Z,22.70080566
2022-07-31T08:36:46.039Z,22.74108887
2022-07-31T08:38:02.175Z,22.75115967
2022-07-31T08:39:21.299Z,22.76123047
2022-07-31T08:40:19.209Z,22.79144287
2022-07-31T08:41:20.001Z,22.81158447
2022-07-31T08:42:20.708Z,22.81158447
2022-07-31T08:44:02.807Z,22.84179688
2022-07-31T08:44:30.919Z,22.85186768
2022-07-31T08:45:23.982Z,22.88208008
2022-07-31T08:46:24.902Z,22.89215088
2022-07-31T08:47:25.512Z,22.91229248
2022-07-31T08:48:26.330Z,22.93243408
2022-07-31T08:49:27.280Z,22.93243408
2022-07-31T08:50:28.050Z,22.96264648
2022-07-31T08:51:29.744Z,22.96264648
2022-07-31T08:52:30.410Z,22.99285889
2022-07-31T08:53:32.155Z,23.00292969
2022-07-31T08:54:33.643Z,23.01300049
2022-07-31T08:55:56.723Z,23.03314209
2022-07-31T08:56:35.261Z,23.04321289
2022-07-31T08:57:36.729Z,23.04321289
2022-07-31T08:58:39.820Z,23.06335449
2022-07-31T08:59:38.424Z,23.07342529
2022-07-31T09:00:39.335Z,23.09356689
2022-07-31T09:01:40.247Z,23.1237793
2022-07-31T09:02:41.844Z,23.1237793
2022-07-31T09:03:43.297Z,23.1539917
2022-07-31T09:04:44.161Z,23.1640625
2022-07-31T09:05:44.970Z,23.1842041
2022-07-31T09:06:45.780Z,23.1942749
2022-07-31T09:07:46.999Z,23.2144165
2022-07-31T09:09:18.419Z,23.2244873
2022-07-31T09:10:19.283Z,23.23455811
2022-07-31T09:11:20.113Z,23.29498291
2022-07-31T09:12:33.395Z,23.30505371
2022-07-31T09:13:22.729Z,23.31512451
2022-07-31T09:14:24.216Z,23.33526611
2022-07-31T09:15:25.181Z,23.34533691
2022-07-31T09:16:31.078Z,23.37554932
2022-07-31T09:17:26.783Z,23.38562012
2022-07-31T09:18:28.194Z,23.41583252
2022-07-31T09:19:52.928Z,23.41583252
2022-07-31T09:20:30.068Z,23.48632813
2022-07-31T09:21:30.767Z,23.48632813
2022-07-31T09:22:31.570Z,23.49639893
2022-07-31T09:23:33.204Z,23.53668213
2022-07-31T09:24:37.023Z,23.53668213
2022-07-31T09:25:35.456Z,23.53668213
2022-07-31T09:26:36.149Z,23.55682373
2022-07-31T09:27:36.953Z,23.56689453
2022-07-31T09:28:38.647Z,23.58703613
2022-07-31T09:29:39.460Z,23.59710693
2022-07-31T09:30:56.295Z,23.62731934
2022-07-31T09:31:40.994Z,23.59710693
2022-07-31T09:32:42.057Z,23.63739014
2022-07-31T09:33:45.804Z,23.63739014
2022-07-31T09:34:44.675Z,23.62731934
2022-07-31T09:35:45.421Z,23.66760254
2022-07-31T09:36:46.612Z,23.68774414
2022-07-31T09:38:17.856Z,23.70788574
2022-07-31T09:39:26.794Z,23.73809814
2022-07-31T09:40:21.280Z,23.77838135
2022-07-31T09:41:56.716Z,23.78845215
2022-07-31T09:42:20.898Z,23.83880615
2022-07-31T09:43:21.694Z,23.85894775
2022-07-31T09:44:26.009Z,23.86901855
2022-07-31T09:45:24.110Z,23.89923096
2022-07-31T09:46:24.912Z,23.92944336
2022-07-31T09:47:25.647Z,23.92944336
2022-07-31T09:48:28.769Z,23.93951416
2022-07-31T09:49:27.378Z,23.96972656
2022-07-31T09:50:28.171Z,23.98986816
2022-07-31T09:51:29.735Z,24.04022217
2022-07-31T09:52:30.453Z,24.05029297
2022-07-31T09:53:32.213Z,24.08050537
2022-07-31T09:54:33.551Z,24.08050537
2022-07-31T09:55:34.275Z,24.11071777
2022-07-31T09:56:34.996Z,24.14093018
2022-07-31T09:57:36.021Z,24.16107178
2022-07-31T09:58:37.696Z,24.19128418
2022-07-31T09:59:38.556Z,24.21142578
2022-07-31T10:00:39.392Z,24.19128418
2022-07-31T10:01:40.065Z,24.19128418
2022-07-31T10:02:40.779Z,24.23156738
2022-07-31T10:03:41.779Z,24.23156738
2022-07-31T10:04:43.057Z,24.23156738
2022-07-31T10:05:43.735Z,24.26177979
2022-07-31T10:06:44.468Z,24.26177979
2022-07-31T10:07:45.156Z,24.24163818
2022-07-31T10:08:46.483Z,24.29199219
2022-07-31T10:10:17.696Z,24.31213379
2022-07-31T10:11:18.507Z,24.33227539
2022-07-31T10:12:19.236Z,24.33227539
2022-07-31T10:13:19.983Z,24.36248779
2022-07-31T10:14:21.811Z,24.37255859
2022-07-31T10:15:22.585Z,24.37255859
2022-07-31T10:16:23.415Z,24.37255859
2022-07-31T10:17:24.467Z,24.4128418
2022-07-31T10:18:35.556Z,24.4430542
2022-07-31T10:19:26.369Z,24.4833374
2022-07-31T10:20:28.170Z,24.52362061
2022-07-31T10:21:28.929Z,24.56390381
2022-07-31T10:22:29.688Z,24.60418701
2022-07-31T10:23:30.401Z,24.63439941
2022-07-31T10:24:32.281Z,24.63439941
2022-07-31T10:25:33.092Z,24.66461182
2022-07-31T10:26:58.553Z,24.70489502
2022-07-31T10:27:39.388Z,24.71496582
2022-07-31T10:28:35.410Z,24.70489502
2022-07-31T10:29:36.338Z,24.71496582
2022-07-31T10:30:37.105Z,24.74517822
2022-07-31T10:31:37.917Z,24.76531982
2022-07-31T10:32:38.649Z,24.76531982
2022-07-31T10:33:44.516Z,24.76531982
2022-07-31T10:34:41.239Z,24.82574463
2022-07-31T10:35:42.769Z,24.86602783
2022-07-31T10:36:43.465Z,24.93652344
2022-07-31T10:37:44.234Z,24.98687744
2022-07-31T10:38:45.048Z,25.06744385
2022-07-31T10:39:46.317Z,25.13793945
2022-07-31T10:41:18.266Z,25.21850586
2022-07-31T10:42:18.994Z,25.23864746
2022-07-31T10:43:20.403Z,25.26885986
2022-07-31T10:44:21.177Z,25.29907227
2022-07-31T10:45:22.910Z,25.29907227
2022-07-31T10:46:23.703Z,25.33935547
2022-07-31T10:47:24.528Z,25.30914307
2022-07-31T10:48:25.443Z,25.29907227
2022-07-31T10:49:26.384Z,25.30914307
2022-07-31T10:50:27.199Z,25.33935547
2022-07-31T10:51:28.713Z,25.34942627
2022-07-31T10:52:29.450Z,25.37963867
2022-07-31T10:53:51.616Z,25.45013428
2022-07-31T10:54:31.791Z,25.53070068
2022-07-31T10:55:32.669Z,25.57098389
2022-07-31T10:56:33.430Z,25.63140869
2022-07-31T10:57:34.145Z,25.67169189
2022-07-31T10:58:35.644Z,25.7522583
2022-07-31T10:59:36.609Z,25.82275391
2022-07-31T11:00:37.516Z,25.89324951
2022-07-31T11:01:38.191Z,25.93353271
2022-07-31T11:02:38.869Z,25.96374512
2022-07-31T11:03:39.676Z,25.97381592
2022-07-31T11:04:41.297Z,26.00402832
2022-07-31T11:06:01.707Z,26.00402832
2022-07-31T11:06:42.950Z,25.96374512
2022-07-31T11:07:43.667Z,25.98388672
2022-07-31T11:08:44.387Z,26.03424072
2022-07-31T11:09:51.408Z,26.04431152
2022-07-31T11:11:17.319Z,26.04431152
2022-07-31T11:12:18.008Z,26.08459473